sensor_id;sensor_type;location;lat;lon;timestamp;pressure;altitude;pressure_sealevel;temperature;humidity
21980;BME280;11154;48.558;9.234;2024-01-11T00:00:39;98389.56;;;9.37;35.16
21980;BME280;11154;48.558;9.234;2024-01-11T00:02:40;98393.97;;;9.27;34.86
21980;BME280;11154;48.558;9.234;2024-01-11T00:04:41;98390.31;;;9.19;35.09
21980;BME280;11154;48.558;9.234;2024-01-11T00:06:44;98394.84;;;9.07;35.91
21980;BME280;11154;48.558;9.234;2024-01-11T00:08:45;98396.47;;;8.99;35.54
21980;BME280;11154;48.558;9.234;2024-01-11T00:10:48;98396.97;;;8.93;35.95
21980;BME280;11154;48.558;9.234;2024-01-11T00:12:50;98396.69;;;8.86;36.31
21980;BME280;11154;48.558;9.234;2024-01-11T00:14:51;98401.63;;;8.80;36.63
21980;BME280;11154;48.558;9.234;2024-01-11T00:16:53;98392.50;;;8.73;36.90
21980;BME280;11154;48.558;9.234;2024-01-11T00:18:54;98400.25;;;8.65;37.18
21980;BME280;11154;48.558;9.234;2024-01-11T00:20:55;98399.94;;;8.59;37.55
21980;BME280;11154;48.558;9.234;2024-01-11T00:22:57;98395.22;;;8.62;37.33
21980;BME280;11154;48.558;9.234;2024-01-11T00:24:58;98401.56;;;8.70;37.33
21980;BME280;11154;48.558;9.234;2024-01-11T00:27:01;98401.63;;;8.80;37.04
21980;BME280;11154;48.558;9.234;2024-01-11T00:29:03;98402.81;;;8.87;36.73
21980;BME280;11154;48.558;9.234;2024-01-11T00:31:05;98406.75;;;8.92;36.37
21980;BME280;11154;48.558;9.234;2024-01-11T00:33:06;98400.81;;;9.00;36.43
21980;BME280;11154;48.558;9.234;2024-01-11T00:35:09;98406.31;;;9.08;36.14
21980;BME280;11154;48.558;9.234;2024-01-11T00:37:10;98395.28;;;9.12;36.04
21980;BME280;11154;48.558;9.234;2024-01-11T00:39:11;98394.19;;;9.15;35.66
21980;BME280;11154;48.558;9.234;2024-01-11T00:41:13;98401.06;;;9.17;35.54
21980;BME280;11154;48.558;9.234;2024-01-11T00:43:16;98397.16;;;9.21;35.19
21980;BME280;11154;48.558;9.234;2024-01-11T00:45:17;98405.97;;;9.22;35.98
21980;BME280;11154;48.558;9.234;2024-01-11T00:47:18;98408.63;;;9.22;35.78
21980;BME280;11154;48.558;9.234;2024-01-11T00:49:20;98403.19;;;9.23;35.99
21980;BME280;11154;48.558;9.234;2024-01-11T00:51:21;98397.59;;;9.26;35.68
21980;BME280;11154;48.558;9.234;2024-01-11T00:53:23;98404.72;;;9.26;35.46
21980;BME280;11154;48.558;9.234;2024-01-11T00:55:25;98400.53;;;9.23;35.28
21980;BME280;11154;48.558;9.234;2024-01-11T00:57:25;98399.56;;;9.24;35.50
21980;BME280;11154;48.558;9.234;2024-01-11T00:59:28;98412.88;;;9.33;35.48
21980;BME280;11154;48.558;9.234;2024-01-11T01:01:30;98401.25;;;9.34;35.03
21980;BME280;11154;48.558;9.234;2024-01-11T01:03:32;98407.22;;;9.27;35.75
21980;BME280;11154;48.558;9.234;2024-01-11T01:05:33;98405.50;;;9.17;36.23
21980;BME280;11154;48.558;9.234;2024-01-11T01:07:35;98406.56;;;9.05;36.48
21980;BME280;11154;48.558;9.234;2024-01-11T01:09:37;98408.19;;;8.96;36.63
21980;BME280;11154;48.558;9.234;2024-01-11T01:11:38;98411.47;;;8.89;35.82
21980;BME280;11154;48.558;9.234;2024-01-11T01:13:40;98410.56;;;8.79;35.82
21980;BME280;11154;48.558;9.234;2024-01-11T01:15:43;98416.50;;;8.71;35.98
21980;BME280;11154;48.558;9.234;2024-01-11T01:17:43;98412.69;;;8.64;36.82
21980;BME280;11154;48.558;9.234;2024-01-11T01:19:45;98413.13;;;8.49;37.21
21980;BME280;11154;48.558;9.234;2024-01-11T01:21:47;98407.38;;;8.44;37.03
21980;BME280;11154;48.558;9.234;2024-01-11T01:23:48;98409.50;;;8.50;37.13
21980;BME280;11154;48.558;9.234;2024-01-11T01:25:50;98422.25;;;8.56;37.14
21980;BME280;11154;48.558;9.234;2024-01-11T01:27:52;98418.00;;;8.64;36.74
21980;BME280;11154;48.558;9.234;2024-01-11T01:29:53;98420.00;;;8.72;36.42
21980;BME280;11154;48.558;9.234;2024-01-11T01:31:56;98416.81;;;8.78;36.42
21980;BME280;11154;48.558;9.234;2024-01-11T01:33:57;98418.97;;;8.84;36.26
21980;BME280;11154;48.558;9.234;2024-01-11T01:35:59;98416.78;;;8.89;36.18
21980;BME280;11154;48.558;9.234;2024-01-11T01:38:00;98412.91;;;8.93;35.90
21980;BME280;11154;48.558;9.234;2024-01-11T01:40:03;98418.78;;;8.96;35.29
21980;BME280;11154;48.558;9.234;2024-01-11T01:42:05;98423.94;;;8.98;35.43
21980;BME280;11154;48.558;9.234;2024-01-11T01:44:07;98420.34;;;8.99;34.79
21980;BME280;11154;48.558;9.234;2024-01-11T01:46:09;98422.59;;;9.03;34.83
21980;BME280;11154;48.558;9.234;2024-01-11T01:48:12;98418.97;;;9.04;34.94
21980;BME280;11154;48.558;9.234;2024-01-11T01:50:13;98420.53;;;9.07;35.18
21980;BME280;11154;48.558;9.234;2024-01-11T01:52:15;98415.47;;;9.04;35.00
21980;BME280;11154;48.558;9.234;2024-01-11T01:54:18;98420.34;;;8.99;35.20
21980;BME280;11154;48.558;9.234;2024-01-11T01:56:21;98420.72;;;8.94;35.14
21980;BME280;11154;48.558;9.234;2024-01-11T01:58:23;98422.91;;;8.89;35.03
21980;BME280;11154;48.558;9.234;2024-01-11T02:00:25;98413.03;;;7.76;35.50
21980;BME280;11154;48.558;9.234;2024-01-11T02:02:27;98424.66;;;3.54;46.69
21980;BME280;11154;48.558;9.234;2024-01-11T02:04:30;98427.53;;;1.93;55.05
21980;BME280;11154;48.558;9.234;2024-01-11T02:06:33;98433.09;;;1.10;60.95
21980;BME280;11154;48.558;9.234;2024-01-11T02:08:34;98428.06;;;0.58;64.66
21980;BME280;11154;48.558;9.234;2024-01-11T02:10:37;98430.16;;;0.35;67.24
21980;BME280;11154;48.558;9.234;2024-01-11T02:12:38;98437.13;;;0.17;68.18
21980;BME280;11154;48.558;9.234;2024-01-11T02:14:40;98436.81;;;0.06;69.88
21980;BME280;11154;48.558;9.234;2024-01-11T02:16:42;98436.66;;;-0.07;70.08
21980;BME280;11154;48.558;9.234;2024-01-11T02:18:43;98431.72;;;-0.13;71.40
21980;BME280;11154;48.558;9.234;2024-01-11T02:20:45;98445.91;;;-0.19;71.66
21980;BME280;11154;48.558;9.234;2024-01-11T02:22:50;98443.75;;;-0.28;71.92
21980;BME280;11154;48.558;9.234;2024-01-11T02:24:55;98445.59;;;-0.30;72.62
21980;BME280;11154;48.558;9.234;2024-01-11T02:26:58;98446.50;;;-0.31;72.67
21980;BME280;11154;48.558;9.234;2024-01-11T02:29:01;98444.69;;;-0.29;72.34
21980;BME280;11154;48.558;9.234;2024-01-11T02:31:03;98442.97;;;-0.30;72.04
21980;BME280;11154;48.558;9.234;2024-01-11T02:33:05;98445.47;;;-0.27;73.25
21980;BME280;11154;48.558;9.234;2024-01-11T02:35:06;98440.44;;;-0.31;73.16
21980;BME280;11154;48.558;9.234;2024-01-11T02:37:08;98447.38;;;-0.30;73.56
21980;BME280;11154;48.558;9.234;2024-01-11T02:39:10;98444.59;;;-0.27;73.51
21980;BME280;11154;48.558;9.234;2024-01-11T02:41:14;98444.38;;;-0.23;74.27
21980;BME280;11154;48.558;9.234;2024-01-11T02:43:17;98441.09;;;-0.09;74.73
21980;BME280;11154;48.558;9.234;2024-01-11T02:45:19;98443.94;;;-0.14;73.25
21980;BME280;11154;48.558;9.234;2024-01-11T02:47:20;98437.41;;;-0.22;73.82
21980;BME280;11154;48.558;9.234;2024-01-11T02:49:22;98434.84;;;-0.24;73.37
21980;BME280;11154;48.558;9.234;2024-01-11T02:51:23;98440.84;;;-0.22;72.98
21980;BME280;11154;48.558;9.234;2024-01-11T02:53:25;98448.69;;;-0.22;73.41
21980;BME280;11154;48.558;9.234;2024-01-11T02:55:27;98441.25;;;-0.12;72.76
21980;BME280;11154;48.558;9.234;2024-01-11T02:57:30;98446.56;;;-0.14;72.19
21980;BME280;11154;48.558;9.234;2024-01-11T02:59:30;98439.34;;;-0.09;72.32
21980;BME280;11154;48.558;9.234;2024-01-11T03:01:32;98439.81;;;-0.01;71.90
21980;BME280;11154;48.558;9.234;2024-01-11T03:03:32;98443.13;;;0.02;72.95
21980;BME280;11154;48.558;9.234;2024-01-11T03:05:34;98440.75;;;-0.02;72.23
21980;BME280;11154;48.558;9.234;2024-01-11T03:07:36;98451.19;;;-0.02;73.23
21980;BME280;11154;48.558;9.234;2024-01-11T03:09:37;98446.75;;;0.00;72.73
21980;BME280;11154;48.558;9.234;2024-01-11T03:11:39;98457.44;;;-0.04;72.81
21980;BME280;11154;48.558;9.234;2024-01-11T03:13:42;98439.81;;;-0.01;73.89
21980;BME280;11154;48.558;9.234;2024-01-11T03:15:44;98438.34;;;-0.06;73.72
21980;BME280;11154;48.558;9.234;2024-01-11T03:17:45;98432.41;;;-0.10;72.65
21980;BME280;11154;48.558;9.234;2024-01-11T03:19:47;98433.50;;;-0.14;73.45
21980;BME280;11154;48.558;9.234;2024-01-11T03:21:49;98433.63;;;-0.17;72.99
21980;BME280;11154;48.558;9.234;2024-01-11T03:23:50;98424.88;;;-0.16;73.15
21980;BME280;11154;48.558;9.234;2024-01-11T03:25:52;98433.94;;;-0.23;72.76
21980;BME280;11154;48.558;9.234;2024-01-11T03:27:54;98432.72;;;-0.16;74.01
21980;BME280;11154;48.558;9.234;2024-01-11T03:29:57;98431.03;;;-0.17;74.06
21980;BME280;11154;48.558;9.234;2024-01-11T03:31:58;98431.91;;;-0.35;72.00
21980;BME280;11154;48.558;9.234;2024-01-11T03:34:00;98433.63;;;-0.34;73.95
21980;BME280;11154;48.558;9.234;2024-01-11T03:36:06;98425.69;;;-0.32;72.88
21980;BME280;11154;48.558;9.234;2024-01-11T03:38:08;98428.38;;;-0.34;72.85
21980;BME280;11154;48.558;9.234;2024-01-11T03:40:10;98425.56;;;-0.29;73.44
21980;BME280;11154;48.558;9.234;2024-01-11T03:42:12;98424.06;;;-0.35;72.36
21980;BME280;11154;48.558;9.234;2024-01-11T03:44:13;98427.31;;;-0.30;72.85
21980;BME280;11154;48.558;9.234;2024-01-11T03:46:17;98423.94;;;-0.32;71.81
21980;BME280;11154;48.558;9.234;2024-01-11T03:48:18;98428.06;;;-0.45;71.54
21980;BME280;11154;48.558;9.234;2024-01-11T03:50:20;98422.84;;;-0.45;72.85
21980;BME280;11154;48.558;9.234;2024-01-11T03:52:22;98430.22;;;-0.36;73.14
21980;BME280;11154;48.558;9.234;2024-01-11T03:54:24;98430.00;;;-0.31;73.38
21980;BME280;11154;48.558;9.234;2024-01-11T03:56:25;98426.69;;;-0.35;72.49
21980;BME280;11154;48.558;9.234;2024-01-11T03:58:26;98423.00;;;-0.31;73.31
21980;BME280;11154;48.558;9.234;2024-01-11T04:00:27;98445.91;;;0.16;72.76
21980;BME280;11154;48.558;9.234;2024-01-11T04:02:30;98427.41;;;1.50;73.33
21980;BME280;11154;48.558;9.234;2024-01-11T04:04:32;98430.03;;;2.10;75.73
21980;BME280;11154;48.558;9.234;2024-01-11T04:06:34;98428.59;;;2.63;76.00
21980;BME280;11154;48.558;9.234;2024-01-11T04:08:35;98427.16;;;3.29;76.08
21980;BME280;11154;48.558;9.234;2024-01-11T04:10:37;98435.44;;;4.03;74.44
21980;BME280;11154;48.558;9.234;2024-01-11T04:12:38;98423.72;;;4.85;70.28
21980;BME280;11154;48.558;9.234;2024-01-11T04:14:40;98413.94;;;5.72;57.04
21980;BME280;11154;48.558;9.234;2024-01-11T04:16:42;98409.94;;;6.60;48.17
21980;BME280;11154;48.558;9.234;2024-01-11T04:18:45;98412.59;;;7.49;43.02
21980;BME280;11154;48.558;9.234;2024-01-11T04:20:47;98418.50;;;8.27;39.46
21980;BME280;11154;48.558;9.234;2024-01-11T04:22:48;98411.66;;;8.97;37.46
21980;BME280;11154;48.558;9.234;2024-01-11T04:24:50;98412.44;;;9.58;35.43
21980;BME280;11154;48.558;9.234;2024-01-11T04:26:52;98402.56;;;10.09;34.18
21980;BME280;11154;48.558;9.234;2024-01-11T04:28:53;98405.09;;;10.39;32.09
21980;BME280;11154;48.558;9.234;2024-01-11T04:30:55;98405.97;;;9.91;31.82
21980;BME280;11154;48.558;9.234;2024-01-11T04:32:57;98406.53;;;9.55;32.22
21980;BME280;11154;48.558;9.234;2024-01-11T04:35:00;98409.06;;;9.27;32.85
21980;BME280;11154;48.558;9.234;2024-01-11T04:37:01;98412.13;;;9.02;33.37
21980;BME280;11154;48.558;9.234;2024-01-11T04:39:03;98418.38;;;8.80;33.68
21980;BME280;11154;48.558;9.234;2024-01-11T04:41:07;98420.34;;;8.58;34.13
21980;BME280;11154;48.558;9.234;2024-01-11T04:43:08;98415.56;;;8.41;34.56
21980;BME280;11154;48.558;9.234;2024-01-11T04:45:11;98422.97;;;8.27;34.92
21980;BME280;11154;48.558;9.234;2024-01-11T04:47:11;98416.84;;;8.15;34.72
21980;BME280;11154;48.558;9.234;2024-01-11T04:49:13;98414.06;;;8.06;35.01
21980;BME280;11154;48.558;9.234;2024-01-11T04:51:16;98423.38;;;8.00;35.89
21980;BME280;11154;48.558;9.234;2024-01-11T04:53:18;98418.56;;;7.94;35.78
21980;BME280;11154;48.558;9.234;2024-01-11T04:55:18;98421.00;;;7.87;35.79
21980;BME280;11154;48.558;9.234;2024-01-11T04:57:20;98409.56;;;7.75;35.76
21980;BME280;11154;48.558;9.234;2024-01-11T04:59:21;98427.03;;;7.67;35.38
21980;BME280;11154;48.558;9.234;2024-01-11T05:01:22;98422.34;;;7.59;35.66
21980;BME280;11154;48.558;9.234;2024-01-11T05:03:24;98419.09;;;7.56;35.83
21980;BME280;11154;48.558;9.234;2024-01-11T05:05:25;98413.31;;;7.51;35.82
21980;BME280;11154;48.558;9.234;2024-01-11T05:07:28;98415.25;;;7.49;35.50
21980;BME280;11154;48.558;9.234;2024-01-11T05:09:30;98416.34;;;7.46;35.80
21980;BME280;11154;48.558;9.234;2024-01-11T05:11:32;98414.66;;;7.45;35.40
21980;BME280;11154;48.558;9.234;2024-01-11T05:13:34;98426.31;;;7.43;35.42
21980;BME280;11154;48.558;9.234;2024-01-11T05:15:34;98421.84;;;7.43;36.05
21980;BME280;11154;48.558;9.234;2024-01-11T05:17:36;98417.66;;;7.41;35.50
21980;BME280;11154;48.558;9.234;2024-01-11T05:19:38;98414.88;;;7.31;35.92
21980;BME280;11154;48.558;9.234;2024-01-11T05:21:40;98422.69;;;7.33;35.73
21980;BME280;11154;48.558;9.234;2024-01-11T05:23:43;98423.78;;;7.41;35.54
21980;BME280;11154;48.558;9.234;2024-01-11T05:25:44;98421.63;;;7.57;35.43
21980;BME280;11154;48.558;9.234;2024-01-11T05:27:46;98423.41;;;7.68;35.38
21980;BME280;11154;48.558;9.234;2024-01-11T05:29:47;98426.03;;;7.79;35.06
21980;BME280;11154;48.558;9.234;2024-01-11T05:31:49;98435.66;;;7.90;35.01
21980;BME280;11154;48.558;9.234;2024-01-11T05:33:51;98431.31;;;8.00;34.68
21980;BME280;11154;48.558;9.234;2024-01-11T05:35:52;98436.94;;;8.07;34.65
21980;BME280;11154;48.558;9.234;2024-01-11T05:37:54;98439.84;;;8.15;34.39
21980;BME280;11154;48.558;9.234;2024-01-11T05:39:57;98439.69;;;8.27;34.15
21980;BME280;11154;48.558;9.234;2024-01-11T05:41:59;98432.50;;;8.18;34.43
21980;BME280;11154;48.558;9.234;2024-01-11T05:44:00;98442.59;;;8.13;34.06
21980;BME280;11154;48.558;9.234;2024-01-11T05:46:02;98438.88;;;8.05;34.66
21980;BME280;11154;48.558;9.234;2024-01-11T05:48:04;98440.63;;;7.84;34.99
21980;BME280;11154;48.558;9.234;2024-01-11T05:50:07;98443.72;;;7.67;35.23
21980;BME280;11154;48.558;9.234;2024-01-11T05:52:09;98449.03;;;7.67;34.95
21980;BME280;11154;48.558;9.234;2024-01-11T05:54:10;98452.28;;;7.71;34.72
21980;BME280;11154;48.558;9.234;2024-01-11T05:56:13;98454.34;;;7.78;34.91
21980;BME280;11154;48.558;9.234;2024-01-11T05:58:15;98461.66;;;7.86;34.30
21980;BME280;11154;48.558;9.234;2024-01-11T06:00:17;98461.03;;;7.93;34.24
21980;BME280;11154;48.558;9.234;2024-01-11T06:02:18;98467.66;;;7.98;34.06
21980;BME280;11154;48.558;9.234;2024-01-11T06:04:22;98464.53;;;8.04;33.92
21980;BME280;11154;48.558;9.234;2024-01-11T06:06:24;98463.91;;;8.12;33.54
21980;BME280;11154;48.558;9.234;2024-01-11T06:08:26;98463.56;;;8.16;33.76
21980;BME280;11154;48.558;9.234;2024-01-11T06:10:27;98464.28;;;8.18;33.77
21980;BME280;11154;48.558;9.234;2024-01-11T06:12:30;98466.56;;;8.23;33.57
21980;BME280;11154;48.558;9.234;2024-01-11T06:14:31;98472.94;;;8.31;33.63
21980;BME280;11154;48.558;9.234;2024-01-11T06:16:33;98480.28;;;8.28;33.60
21980;BME280;11154;48.558;9.234;2024-01-11T06:18:35;98479.47;;;8.16;33.80
21980;BME280;11154;48.558;9.234;2024-01-11T06:20:36;98483.19;;;8.03;34.01
21980;BME280;11154;48.558;9.234;2024-01-11T06:22:38;98474.63;;;8.10;33.97
21980;BME280;11154;48.558;9.234;2024-01-11T06:24:39;98473.34;;;8.16;34.16
21980;BME280;11154;48.558;9.234;2024-01-11T06:26:41;98478.25;;;8.20;33.66
21980;BME280;11154;48.558;9.234;2024-01-11T06:28:44;98476.78;;;8.27;33.90
21980;BME280;11154;48.558;9.234;2024-01-11T06:30:46;98486.88;;;8.33;33.60
21980;BME280;11154;48.558;9.234;2024-01-11T06:32:47;98482.44;;;8.34;33.56
21980;BME280;11154;48.558;9.234;2024-01-11T06:34:49;98478.56;;;8.38;33.35
21980;BME280;11154;48.558;9.234;2024-01-11T06:36:51;98473.03;;;8.41;33.44
21980;BME280;11154;48.558;9.234;2024-01-11T06:38:53;98473.63;;;8.44;34.03
21980;BME280;11154;48.558;9.234;2024-01-11T06:40:53;98475.31;;;8.45;33.94
21980;BME280;11154;48.558;9.234;2024-01-11T06:42:55;98474.53;;;8.54;33.31
21980;BME280;11154;48.558;9.234;2024-01-11T06:44:57;98481.03;;;8.61;33.25
21980;BME280;11154;48.558;9.234;2024-01-11T06:46:59;98478.97;;;8.64;33.34
21980;BME280;11154;48.558;9.234;2024-01-11T06:49:02;98479.41;;;8.69;33.25
21980;BME280;11154;48.558;9.234;2024-01-11T06:51:03;98469.91;;;8.67;32.81
21980;BME280;11154;48.558;9.234;2024-01-11T06:53:05;98477.56;;;8.50;33.04
21980;BME280;11154;48.558;9.234;2024-01-11T06:55:08;98485.81;;;8.36;33.52
21980;BME280;11154;48.558;9.234;2024-01-11T06:57:10;98492.22;;;8.22;33.75
21980;BME280;11154;48.558;9.234;2024-01-11T06:59:12;98489.69;;;8.10;34.25
21980;BME280;11154;48.558;9.234;2024-01-11T07:01:15;98493.78;;;7.92;34.34
21980;BME280;11154;48.558;9.234;2024-01-11T07:03:17;98495.22;;;7.85;34.66
21980;BME280;11154;48.558;9.234;2024-01-11T07:05:18;98493.53;;;7.95;34.49
21980;BME280;11154;48.558;9.234;2024-01-11T07:07:20;98486.81;;;8.02;34.47
21980;BME280;11154;48.558;9.234;2024-01-11T07:09:22;98491.59;;;8.08;34.46
21980;BME280;11154;48.558;9.234;2024-01-11T07:11:23;98493.91;;;8.12;34.49
21980;BME280;11154;48.558;9.234;2024-01-11T07:13:25;98494.03;;;8.22;34.68
21980;BME280;11154;48.558;9.234;2024-01-11T07:15:26;98503.28;;;8.27;34.63
21980;BME280;11154;48.558;9.234;2024-01-11T07:17:29;98503.78;;;8.32;34.66
21980;BME280;11154;48.558;9.234;2024-01-11T07:19:30;98508.81;;;8.35;34.14
21980;BME280;11154;48.558;9.234;2024-01-11T07:21:32;98514.47;;;8.73;46.45
21980;BME280;11154;48.558;9.234;2024-01-11T07:23:33;98513.47;;;8.85;34.18
21980;BME280;11154;48.558;9.234;2024-01-11T07:25:35;98507.50;;;8.72;34.00
21980;BME280;11154;48.558;9.234;2024-01-11T07:27:36;98513.56;;;8.63;33.65
21980;BME280;11154;48.558;9.234;2024-01-11T07:29:38;98507.69;;;8.49;33.99
21980;BME280;11154;48.558;9.234;2024-01-11T07:31:39;98515.94;;;8.35;34.02
21980;BME280;11154;48.558;9.234;2024-01-11T07:33:43;98531.72;;;8.25;34.34
21980;BME280;11154;48.558;9.234;2024-01-11T07:35:45;98537.97;;;8.13;34.66
21980;BME280;11154;48.558;9.234;2024-01-11T07:37:47;98527.47;;;8.01;34.62
21980;BME280;11154;48.558;9.234;2024-01-11T07:39:50;98529.19;;;7.91;35.01
21980;BME280;11154;48.558;9.234;2024-01-11T07:41:51;98530.50;;;7.86;36.37
21980;BME280;11154;48.558;9.234;2024-01-11T07:43:53;98489.81;;;5.06;41.18
21980;BME280;11154;48.558;9.234;2024-01-11T07:45:58;98496.78;;;1.58;54.19
21980;BME280;11154;48.558;9.234;2024-01-11T07:48:00;98510.28;;;0.53;63.13
21980;BME280;11154;48.558;9.234;2024-01-11T07:50:06;98514.97;;;-0.06;66.26
21980;BME280;11154;48.558;9.234;2024-01-11T07:52:09;98516.69;;;-0.42;70.38
21980;BME280;11154;48.558;9.234;2024-01-11T07:54:11;98514.94;;;-0.60;71.35
21980;BME280;11154;48.558;9.234;2024-01-11T07:56:13;98511.53;;;-0.62;73.41
21980;BME280;11154;48.558;9.234;2024-01-11T07:58:15;98510.13;;;-0.69;74.26
21980;BME280;11154;48.558;9.234;2024-01-11T08:00:17;98513.09;;;-0.76;75.34
21980;BME280;11154;48.558;9.234;2024-01-11T08:02:18;98517.97;;;-0.88;75.33
21980;BME280;11154;48.558;9.234;2024-01-11T08:04:20;98520.94;;;-0.96;76.41
21980;BME280;11154;48.558;9.234;2024-01-11T08:06:22;98532.75;;;-1.07;75.51
21980;BME280;11154;48.558;9.234;2024-01-11T08:08:24;98538.66;;;-1.22;76.08
21980;BME280;11154;48.558;9.234;2024-01-11T08:10:25;98543.25;;;-1.29;76.91
21980;BME280;11154;48.558;9.234;2024-01-11T08:12:27;98545.16;;;-1.32;77.28
21980;BME280;11154;48.558;9.234;2024-01-11T08:14:28;98550.31;;;-1.31;78.22
21980;BME280;11154;48.558;9.234;2024-01-11T08:16:30;98564.72;;;-1.22;78.75
21980;BME280;11154;48.558;9.234;2024-01-11T08:18:32;98551.09;;;-1.09;77.92
21980;BME280;11154;48.558;9.234;2024-01-11T08:20:33;98550.63;;;-0.98;76.69
21980;BME280;11154;48.558;9.234;2024-01-11T08:22:36;98551.72;;;-0.84;79.27
21980;BME280;11154;48.558;9.234;2024-01-11T08:24:38;98559.81;;;-0.90;78.53
21980;BME280;11154;48.558;9.234;2024-01-11T08:26:40;98569.41;;;-0.90;78.52
21980;BME280;11154;48.558;9.234;2024-01-11T08:28:42;98573.28;;;-0.99;77.99
21980;BME280;11154;48.558;9.234;2024-01-11T08:30:44;98591.84;;;-1.06;77.51
21980;BME280;11154;48.558;9.234;2024-01-11T08:32:46;98598.25;;;-1.13;77.67
21980;BME280;11154;48.558;9.234;2024-01-11T08:34:47;98592.56;;;-1.23;78.11
21980;BME280;11154;48.558;9.234;2024-01-11T08:36:49;98600.28;;;-1.20;79.51
21980;BME280;11154;48.558;9.234;2024-01-11T08:38:52;98590.94;;;-1.25;79.04
21980;BME280;11154;48.558;9.234;2024-01-11T08:40:53;98577.44;;;-1.15;78.74
21980;BME280;11154;48.558;9.234;2024-01-11T08:42:54;98585.91;;;-1.10;78.52
21980;BME280;11154;48.558;9.234;2024-01-11T08:44:56;98584.66;;;-1.01;79.21
21980;BME280;11154;48.558;9.234;2024-01-11T08:46:57;98615.59;;;-0.73;79.70
21980;BME280;11154;48.558;9.234;2024-01-11T08:49:00;98634.59;;;1.95;95.17
21980;BME280;11154;48.558;9.234;2024-01-11T08:51:03;98623.38;;;3.99;100.00
21980;BME280;11154;48.558;9.234;2024-01-11T08:53:05;98619.91;;;5.69;100.00
21980;BME280;11154;48.558;9.234;2024-01-11T08:55:08;98605.81;;;5.82;93.63
21980;BME280;11154;48.558;9.234;2024-01-11T08:57:10;98617.75;;;5.24;55.32
21980;BME280;11154;48.558;9.234;2024-01-11T08:59:10;98612.31;;;4.75;53.65
21980;BME280;11154;48.558;9.234;2024-01-11T09:01:12;98616.63;;;4.49;53.69
21980;BME280;11154;48.558;9.234;2024-01-11T09:03:14;98618.81;;;4.29;54.32
21980;BME280;11154;48.558;9.234;2024-01-11T09:05:17;98625.50;;;4.21;54.84
21980;BME280;11154;48.558;9.234;2024-01-11T09:07:18;98621.28;;;4.18;55.98
21980;BME280;11154;48.558;9.234;2024-01-11T09:09:20;98614.50;;;4.14;56.12
21980;BME280;11154;48.558;9.234;2024-01-11T09:11:22;98615.81;;;4.21;57.24
21980;BME280;11154;48.558;9.234;2024-01-11T09:13:24;98619.09;;;4.25;57.85
21980;BME280;11154;48.558;9.234;2024-01-11T09:15:27;98627.75;;;4.27;57.65
21980;BME280;11154;48.558;9.234;2024-01-11T09:17:29;98628.91;;;4.63;55.56
21980;BME280;11154;48.558;9.234;2024-01-11T09:19:29;98618.53;;;4.47;55.38
21980;BME280;11154;48.558;9.234;2024-01-11T09:21:31;98613.28;;;4.20;56.78
21980;BME280;11154;48.558;9.234;2024-01-11T09:23:32;98611.53;;;4.06;57.66
21980;BME280;11154;48.558;9.234;2024-01-11T09:25:34;98607.38;;;4.02;58.56
21980;BME280;11154;48.558;9.234;2024-01-11T09:27:37;98613.28;;;4.06;58.75
21980;BME280;11154;48.558;9.234;2024-01-11T09:29:42;98614.72;;;4.11;59.81
21980;BME280;11154;48.558;9.234;2024-01-11T09:31:44;98618.66;;;4.18;59.94
21980;BME280;11154;48.558;9.234;2024-01-11T09:33:46;98603.91;;;4.16;59.12
21980;BME280;11154;48.558;9.234;2024-01-11T09:35:48;98591.59;;;4.02;59.83
21980;BME280;11154;48.558;9.234;2024-01-11T09:37:50;98598.75;;;4.00;60.16
21980;BME280;11154;48.558;9.234;2024-01-11T09:39:52;98601.56;;;3.97;61.72
21980;BME280;11154;48.558;9.234;2024-01-11T09:41:58;98611.53;;;4.06;61.36
21980;BME280;11154;48.558;9.234;2024-01-11T09:44:04;98606.44;;;4.03;61.39
21980;BME280;11154;48.558;9.234;2024-01-11T09:46:06;98611.53;;;4.06;61.86
21980;BME280;11154;48.558;9.234;2024-01-11T09:48:09;98619.59;;;4.17;62.82
21980;BME280;11154;48.558;9.234;2024-01-11T09:50:11;98614.06;;;4.22;63.39
21980;BME280;11154;48.558;9.234;2024-01-11T09:52:19;98612.81;;;4.27;62.78
21980;BME280;11154;48.558;9.234;2024-01-11T09:54:20;98602.59;;;4.63;60.61
21980;BME280;11154;48.558;9.234;2024-01-11T09:56:22;98607.34;;;4.44;60.36
21980;BME280;11154;48.558;9.234;2024-01-11T09:58:25;98605.97;;;4.11;60.83
21980;BME280;11154;48.558;9.234;2024-01-11T10:00:28;98614.53;;;3.86;60.70
21980;BME280;11154;48.558;9.234;2024-01-11T10:02:30;98613.97;;;3.67;61.88
21980;BME280;11154;48.558;9.234;2024-01-11T10:04:32;98616.38;;;3.56;62.86
21980;BME280;11154;48.558;9.234;2024-01-11T10:06:34;98617.63;;;3.51;63.55
21980;BME280;11154;48.558;9.234;2024-01-11T10:08:38;98612.53;;;3.48;64.10
21980;BME280;11154;48.558;9.234;2024-01-11T10:10:40;98611.69;;;3.48;64.25
21980;BME280;11154;48.558;9.234;2024-01-11T10:12:41;98606.34;;;3.49;64.38
21980;BME280;11154;48.558;9.234;2024-01-11T10:14:42;98612.53;;;3.48;64.18
21980;BME280;11154;48.558;9.234;2024-01-11T10:16:45;98605.03;;;3.56;67.42
21980;BME280;11154;48.558;9.234;2024-01-11T10:18:46;98602.88;;;3.49;65.68
21980;BME280;11154;48.558;9.234;2024-01-11T10:20:48;98601.28;;;3.46;65.31
21980;BME280;11154;48.558;9.234;2024-01-11T10:22:52;98604.66;;;3.62;64.94
21980;BME280;11154;48.558;9.234;2024-01-11T10:25:07;98605.22;;;3.81;63.52
21980;BME280;11154;48.558;9.234;2024-01-11T10:27:10;98606.38;;;3.91;62.47
21980;BME280;11154;48.558;9.234;2024-01-11T10:29:11;98597.63;;;4.04;61.84
21980;BME280;11154;48.558;9.234;2024-01-11T10:31:13;98601.63;;;4.24;60.95
21980;BME280;11154;48.558;9.234;2024-01-11T10:33:18;98603.00;;;4.43;60.23
21980;BME280;11154;48.558;9.234;2024-01-11T10:35:21;98593.00;;;4.62;58.27
21980;BME280;11154;48.558;9.234;2024-01-11T10:37:23;98592.72;;;4.79;57.96
21980;BME280;11154;48.558;9.234;2024-01-11T10:39:26;98587.94;;;4.97;57.70
21980;BME280;11154;48.558;9.234;2024-01-11T10:41:29;98585.06;;;5.14;57.63
21980;BME280;11154;48.558;9.234;2024-01-11T10:43:36;98586.78;;;5.40;56.31
21980;BME280;11154;48.558;9.234;2024-01-11T10:45:38;98587.41;;;5.56;55.22
21980;BME280;11154;48.558;9.234;2024-01-11T10:47:46;98592.16;;;5.64;54.01
21980;BME280;11154;48.558;9.234;2024-01-11T10:49:50;98586.94;;;5.76;53.25
21980;BME280;11154;48.558;9.234;2024-01-11T10:51:59;98577.31;;;5.87;53.25